Aérodrome :
LOGIN :

S'inscrire | Disclaimer

   EN    FR    IT 

 










Légende :    VFR   VFR Marginal   IFR   IFR Intensif   IFR Très Intensif
Visi : 
Plafond : 
>= 8 km
>= 3000ft
5 à 8 km
1000 à 3000 ft
1500m à 5 km
500 à 1000 ft
800 à 1500m
200 à 500 ft
< 800m
< 200 ft
Symboles :   Orages  Brouillard  Fortes neiges  Fortes précipitations  Vent > 20 kt
SIGMETs :   Divers  Orages  Givrage  Turbulence  Onde Orograph.  Cendres Volcan.






- Altitude de l'aérodrome : 13 ft
- Code IATA : LYX


EGMD - Lydd

DERNIER METAR :
  • 150650Z AUTO 26013KT 9999 FEW036/// 07/03 Q0996

METARs EXPIRÉS :
  • 150620Z AUTO 25018KT 9999 NCD 07/03 Q0995
  • 150550Z AUTO 25017KT 9999 NCD 07/02 Q0994
  • 150520Z AUTO 26018KT 9999 NCD 07/02 Q0994
  • 150450Z AUTO 25022KT 9999 NCD 07/02 Q0993
  • 150420Z AUTO 26021KT 9999 NCD 08/03 Q0992

TAF TAF EGMD
Valide du 15 à 06h jusqu'au 15 à 15h UTC


150456Z 1506/1515 22023G33KT 9999 FEW030
TEMPO 1506/1507 24025G43KT
PROB40
TEMPO 1507/1512 24025G43KT 4000 +SHRA BKN012
ATIS : +44 1797 322 422



MET'MAP, la Météo Aéronautique d'un coup d'oeil ! - Copyright ORBIFLY Décembre 2007 - Disclaimer

ORBIFLY MET'MAP TEAM :

Programmation & Développement : Alexandra Zaïnal
Sur une idée originale de : Baudouin d'Aumeries
Assistance à la programmation : Marc-Olivier Méhu
Soutien technique & logistique : Manuel Goepfert

Contact : metmap@orbifly.com




SOURCES & CREDITS :

   NOAA